空港情報

日本の空港の気象及び、管制情報です。
気象情報はより詳細な情報が取得できる「AVIATION WEATER CENTER」 から取得しているため、VATSIMの気象情報と若干のタイムラグが生じることがあります。

VRCのフィールド設定用空港一覧はこちらをご覧ください。

RJCG Sapporo Control

RJCW / Wakkanai
VMC

NO RADAR

RADIO

08/26 2200x45

民間 civil

7000

270@20KT

30.09

RJCW 250500Z 27020KT 7000 BLSN -SHSN FEW010 SCT025 BKN040 M07/M13 Q1019

RJER / Rishiri

NO RADAR

REMOTE

25/07 1800x45

民間 civil

過去5時間に発表されたMETARがありません。

RJEB / Monbetsu
VMC

NO RADAR

REMOTE

32/14 2000x45

民間 civil

9999

280@11KT

30.09

RJEB 250500Z 28011KT 9999 -SHSN FEW004 BKN020 M05/M12 Q1019

RJCM / Memanbetsu
VMC

NO RADAR

TOWER

36/18 2500x45

民間 civil

9999

010@9KT

30.09

RJCM 250500Z 01009KT 9999 FEW020 SCT040 BKN050 M05/M11 Q1019

RJEC / Asahikawa
VMC

NO RADAR

TOWER

34/16 2500x60

民間 civil

9999

230@7KT

30.09

RJEC 250500Z 23007KT 190V260 9999 -SHSN FEW005 SCT015 BKN025 M06/M10 Q1019

RJCN / Nakashibetsu
VMC

NO RADAR

RADIO

08/26 2000x45

民間 civil

9999

220@11KT

30.06

RJCN 250500Z 22011KT 9999 FEW030 BKN050 M03/M15 Q1018

RJCK / Kushiro
VMC

NO RADAR

TOWER

17/35 2500x45

民間 civil

9999

240@8KT

30.09

RJCK 250500Z 24008KT 180V290 9999 FEW040 SCT060 M02/M16 Q1019

RJCO / Sapporo

RJCO_APP

TOWER

14/32 1500x30

共用 dual

過去5時間に発表されたMETARがありません。

RJCJ / Chitose

RJCC_APP

TOWER

36R/18L 3000x60
36L/18R 2700x45

自衛隊 military

過去5時間に発表されたMETARがありません。

RJCC / NewChitose
VMC

RJCC_APP

TOWER

01L/19R 3000x60
01R/19L 3000x60

民間 civil

9999

060@10KT

30.18

RJCC 250520Z 06010KT 9999 FEW020 BKN040 M04/M11 Q1022 RMK 1CU020 6CU040 A3019

RJCB / Obihiro
VMC

NO RADAR

TOWER

35/17 2500x45

民間 civil

9999

030@4KT

30.09

RJCB 250500Z 03004KT 9999 FEW040 M04/M18 Q1019

RJEO / Okushiri

NO RADAR

REMOTE

12/30 1500x45

民間 civil

過去5時間に発表されたMETARがありません。

RJCH / Hakodate
VMC

RJCH_APP

TOWER

12/30 3000x45

民間 civil

9999

290@14KT

30.24

RJCH 250500Z 29014KT 9999 FEW007 SCT025 BKN035 M03/M10 Q1024

RJSA / Aomori
VMC

NO RADAR

TOWER

24/06 3000x60

民間 civil

9999

280@11KT

30.21

RJSA 250500Z 28011KT 250V310 9999 -SHSN FEW010 SCT030 M04/M09 Q1023

RJSO / Ominato
IMC

RJSM_APP

TOWER

04/22 600x45

自衛隊 military

3200

260@6KT

30.24

RJSO 250450Z 26006KT 3200 -SHSN FEW008 SCT010 BKN015 M04/M07 Q1024 RMK 1ST008 4ST010 6CU015 A3025

RJSM / Misawa

RJSM_APP

TOWER

10/28 3050x45

共用 dual

過去5時間に発表されたMETARがありません。

RJSH / Hachinohe

RJSM_APP

TOWER

25/07 2250x45

自衛隊 military

過去5時間に発表されたMETARがありません。

RJSK / Akita
IMC

NO RADAR

TOWER

10/28 2500x60

民間 civil

4500

340@9KT

30.24

RJSK 250500Z 34009KT 4500 -SHSN FEW004 SCT010 BKN015 M02/M05 Q1024

RJSI / Hanamaki
VMC

NO RADAR

RADIO

20/02 2500x45

民間 civil

9999

000@2KT

30.21

RJSI 250500Z VRB02KT 9999 FEW020 BKN040 01/M08 Q1023

RJSR / Odate-Noshiro
VMC

NO RADAR

REMOTE

11/29 2000x45

民間 civil

9999

300@9KT

30.24

RJSR 250500Z 30009KT 9999 -SHSN FEW010 SCT020 BKN040 M02/M09 Q1024

RJTG Tokyo Control

RJSY / Shonai
VMC

NO RADAR

RADIO

09/27 2000x45

民間 civil

9999

290@7KT

30.27

RJSY 250500Z 29007KT 250V320 9999 -SHSN FEW015 SCT025 BKN035 01/M06 Q1025

RJSC / Yamagata
VMC

NO RADAR

RADIO

01/19 2000x45

民間 civil

9999

010@14KT

30.24

RJSC 250500Z 01014KT 9999 FEW005 BKN050 00/M03 Q1024

RJST / Matsushima

RJSS_APP

TOWER

07/25 2071x46
15/33 1500x46

自衛隊 military

過去5時間に発表されたMETARがありません。

RJSS / Sendai
VMC

RJSS_APP

TOWER

27/09 3000x45
12/30 1200x45

民間 civil

9999

120@10KT

30.21

RJSS 250500Z 12010KT 9999 FEW030 BKN050 04/M06 Q1023

RJSD / Sado

NO RADAR

REMOTE

10/28 890x25

民間 civil

過去5時間に発表されたMETARがありません。

RJSN / Niigata
VMC

RJSN_APP

TOWER

10/28 2500x45
04/22 1314x45

民間 civil

6000

050@3KT

30.30

RJSN 250500Z 05003KT 360V080 6000 -SHSN FEW008 SCT015 BKN020 01/01 Q1026

RJSF / Fukushima
VMC

NO RADAR

RADIO

01/19 2500x60

民間 civil

9999

000@4KT

30.18

RJSF 250500Z VRB04KT 9999 SCT040 BKN050 BKN/// 04/M07 Q1022

RJAH / Ibaraki/Hyakuri
VMC

RJAH_APP

TOWER

03L/21R 2700x45
03R/21L 2700x45

共用 dual

9999

100@9KT

30.21

RJAH 250500Z 10009KT 9999 FEW025 BKN030 BKN045 05/M04 Q1023

RJTT / Tokyo
VMC

RJTT_APP

TOWER

34LR/16RL 3000x60
04/22&05/23 2500x60

民間 civil

9999

070@8KT

30.21

RJTT 250500Z 07008KT 9999 BKN030 07/M01 Q1023 NOSIG RMK 7SC030 A3022

RJAA / Narita
VMC

RJTT_APP

TOWER

34L/16R 4000x60
34R/16L 2500x60

民間 civil

9999

080@9KT

30.21

RJAA 250500Z 08009KT 9999 FEW030 BKN035 06/M02 Q1023 NOSIG RMK 1CU030 7SC035 A3023

RJTL / Shimofusa

RJTT_APP

TOWER

19/01 2250x45

自衛隊 military

過去5時間に発表されたMETARがありません。

RJTE / Tateyama

RJTT_APP

TOWER

09/27 300x45

自衛隊 military

過去5時間に発表されたMETARがありません。

RJTO / Oshima
VMC

NO RADAR

RADIO

03/21 1800x45

民間 civil

9999

050@12KT

30.18

RJTO 250500Z 05012KT 9999 FEW020 SCT025 BKN140 10/03 Q1022

RJTK / Kisarazu

NO RADAR

TOWER

02/20 1830x45

自衛隊 military

過去5時間に発表されたMETARがありません。

RJAN / Niijima

NO RADAR

REMOTE

11/29 800x25

自衛隊 military

過去5時間に発表されたMETARがありません。

RJAZ / Kozushima

NO RADAR

REMOTE

11/29 800x25

民間 civil

過去5時間に発表されたMETARがありません。

RJTH / Hachijojima

NO RADAR

RADIO

26/08 2000x45

民間 civil

過去5時間に発表されたMETARがありません。

RJTF / Chofu
VMC

NO RADAR

Flight Service

35/17 800x30

民間 civil

9999

150@7KT

30.21

RJTF 250500Z 15007KT 120V180 9999 FEW025 BKN035 BKN150 08/M03 Q1023

RJTQ / Miyake

NO RADAR

REMOTE

02/20 1200x30

民間 civil

過去5時間に発表されたMETARがありません。

RJTC / Tachikawa

NO RADAR

TOWER

01/19 900x45

自衛隊 military

過去5時間に発表されたMETARがありません。

RJTA / Atsugi

NO RADAR

TOWER

01/19 2438x45

自衛隊 military

過去5時間に発表されたMETARがありません。

RJTU / Utsunomiya

RJTY_APP

TOWER

01/19 1700x45

自衛隊 military

過去5時間に発表されたMETARがありません。

RJTJ / Iruma

RJTY_APP

TOWER

17/35 2000x45

自衛隊 military

過去5時間に発表されたMETARがありません。

RJTY / Yokota
VMC

RJTY_APP

TOWER

18/36 3353x60

自衛隊 military

9999

000@0KT

30.24

RJTY 250456Z AUTO 00000KT 10SM FEW170 08/M04 A3024 RMK AO2 SLP250 T00801045 FZRANO $

RJAF / Matsumoto
VMC

NO RADAR

RADIO

18/36 2000x45

民間 civil

9999

030@4KT

30.09

RJAF 250500Z 03004KT 350V060 9999 SCT060 BKN090 BKN/// 03/M06 Q1019

RJNS / Shizuoka
VMC

NO RADAR

RADIO

30/12 2500x60

民間 civil

9999

140@10KT

30.12

RJNS 250500Z 14010KT 110V180 9999 FEW025 SCT120 BKN/// 11/M00 Q1020

RJNY / Yaizu-Shizuhama

NO RADAR

TOWER

27/09 1500x45

自衛隊 military

過去5時間に発表されたMETARがありません。

RJNH / Hamamatsu

RJNH_APP

TOWER

09/27 2550x60

自衛隊 military

過去5時間に発表されたMETARがありません。

RJGG / Chubu
VMC

RJGG_APP

TOWER

36/18 3500x60

民間 civil

9999

330@7KT

30.18

RJGG 250500Z 33007KT CAVOK 09/M03 Q1022 NOSIG

RJNA / Nagoya

RJGG_APP

TOWER

34/16 2740x45

民間 civil

過去5時間に発表されたMETARがありません。

RJNG / Gifu

RJGG_APP

TOWER

28/10 2710x46

自衛隊 military

過去5時間に発表されたMETARがありません。

RJOE / Akeno

RJOE_APP

TOWER

13/31 500x30
04/22 500x30

自衛隊 military

過去5時間に発表されたMETARがありません。

RJNK / Komatsu
VMC

RJNK_APP

TOWER

06/24 2700x45

共用 dual

9999

040@6KT

30.24

RJNK 250500Z 04006KT 9999 FEW040 BKN230 06/M07 Q1024

RJNW / Noto
VMC

NO RADAR

RADIO

25/07 2000x45

民間 civil

9999

140@6KT

30.24

RJNW 250500Z 14006KT 090V190 9999 FEW010 SCT020 BKN030 02/M02 Q1024

RJNT / Toyama
VMC

NO RADAR

TOWER

20/02 2000x45

民間 civil

9999

000@1KT

30.27

RJNT 250500Z VRB01KT 9999 FEW050 SCT100 BKN/// 05/M05 Q1025

RJNF / Fukui

NO RADAR

REMOTE

18/36 1200x30

民間 civil

過去5時間に発表されたMETARがありません。

RJBD / Nanki-Shirahama
VMC

NO RADAR

RADIO

15/33 2000x45

民間 civil

6000

150@7KT

30.15

RJBD 250500Z 15007KT 6000 -RA FEW008 SCT030 BKN045 10/08 Q1021

RJOY / Yao
VMC

RJBB_APP

TOWER

27/09 1490x45
13/31 1200x30

民間 civil

9999

060@3KT

30.18

RJOY 250500Z 06003KT 350V130 9999 FEW080 BKN100 BKN/// 10/M02 Q1022

RJOO / Osaka
VMC

RJBB_APP

TOWER

32L/14R 3000x60
32R/14L 1830x45

民間 civil

9999

070@5KT

30.18

RJOO 250500Z 07005KT 020V100 CAVOK 10/M04 Q1022 RMK A3019

RJOB / Okayama
VMC

RJBB_APP

TOWER

07/25 3000x45

民間 civil

9999

160@5KT

30.15

RJOB 250500Z 16005KT 110V200 9999 FEW025 BKN100 08/M01 Q1021

RJBB / Kansai
VMC

RJBB_APP

TOWER

06R/24L 3500x60
06L/24R 4000x60

民間 civil

9999

020@9KT

30.18

RJBB 250500Z 02009KT 9999 FEW030 SCT040 BKN100 09/00 Q1022 NOSIG

RJBE / Kobe
VMC

RJBB_APP

TOWER

09/27 2500x60

民間 civil

9999

120@8KT

30.18

RJBE 250500Z 12008KT CAVOK 09/M00 Q1022

RJBT / Tajima
VMC

NO RADAR

REMOTE

01/19 1200x30

民間 civil

9999

000@2KT

30.18

RJBT 250500Z VRB02KT 9999 FEW030 SCT100 BKN/// 07/M01 Q1022

RJOR / Tottori
VMC

NO RADAR

RADIO

10/28 2000x45

民間 civil

9999

040@11KT

30.15

RJOR 250500Z 04011KT 9999 FEW040 SCT120 BKN/// 09/M00 Q1021

RJNO / Oki

NO RADAR

REMOTE

07/25 2000x45

民間 civil

過去5時間に発表されたMETARがありません。

RJOH / Miho
VMC

RJOH_APP

TOWER

25/07 2500x45

共用 dual

9999

060@11KT

30.15

RJOH 250500Z 06011KT 9999 FEW035 SCT180 BKN200 09/M02 Q1021

RJOC / Izumo
VMC

RJOH_APP

RADIO

07/25 2000x45

共用 dual

9999

050@10KT

30.15

RJOC 250500Z 05010KT 9999 FEW040 BKN/// 09/02 Q1021

RJDG Fukuoka Control

RJOT / Takamatsu
VMC

RJBB_APP

TOWER

26/08 2500x60

民間 civil

9999

050@8KT

30.15

RJOT 250500Z 05008KT 020V080 9999 FEW020 SCT050 BKN070 07/M01 Q1021

RJOK / Kochi
VMC

RJBB_APP

TOWER

32/14 2500x45

民間 civil

9999

180@4KT

30.12

RJOK 250500Z 18004KT 130V200 9999 FEW025 SCT040 BKN050 13/01 Q1020

RJOS / Tokushima

RJOS_APP

TOWER

29/11 2500x45

共用 dual

過去5時間に発表されたMETARがありません。

RJOA / Hiroshima
VMC

RJOA_APP

TOWER

10/28 3000x60

民間 civil

9999

150@3KT

30.12

RJOA 250500Z 15003KT 090V210 9999 FEW025 SCT040 OVC/// 08/M00 Q1020

RJBH / Hiroshimanishi

NO RADAR

Flight Service

04/22 1800x45

民間 civil

過去5時間に発表されたMETARがありません。

RJOI / Iwakuni
VMC

RJOI_APP

TOWER

02/20 2440x60

共用 dual

9000

150@8KT

30.17

RJOI 250455Z 15008KT 9000 HZ FEW030 BKN080 OVC120 09/03 A3017 RMK SLP216 T00940033

RJOM / Matsuyama
VMC

RJOI_APP

TOWER

14/32 2500x45

民間 civil

8000

010@8KT

30.15

RJOM 250500Z 01008KT 8000 -RA FEW025 SCT045 BKN060 10/04 Q1021

RJOZ / Ozuki

RJFZ_APP

TOWER

35/17 1201x61
12/30 899x46

自衛隊 military

過去5時間に発表されたMETARがありません。

RJOF / Hofu
VMC

RJFZ_APP

TOWER

30/12 1180x60
01/19 1480x45

自衛隊 military

9000

160@8KT

30.15

RJOF 250509Z 16008KT 9000 -RA FEW030 SCT060 OVC090 11/04 Q1021 RMK 1CU030 3SC060 8AS090 A3016

RJDC / Yamaguchi-Ube
VMC

RJFZ_APP

RADIO

07/25 2500x45

民間 civil

8000

180@7KT

30.15

RJDC 250500Z 18007KT 8000 -RA FEW030 SCT050 BKN070 10/06 Q1021

RJFR / Kitakyushu
VMC

RJFZ_APP

TOWER

18/36 2500x60

民間 civil

8000

110@3KT

30.15

RJFR 250500Z 11003KT 040V210 8000 FEW030 SCT050 BKN080 09/05 Q1021

RJFZ / Tsuiki

RJFZ_APP

TOWER

25/07 2399x46

自衛隊 military

過去5時間に発表されたMETARがありません。

RJOW / Iwami
VMC

NO RADAR

REMOTE

11/29 2000x45

民間 civil

9999

310@5KT

30.12

RJOW 250500Z 31005KT 280V350 9999 FEW035 SCT070 BKN100 10/04 Q1020

RJDT / Tsushima
VMC

NO RADAR

REMOTE

32/14 1900x45

民間 civil

9999

000@4KT

30.15

RJDT 250500Z VRB04KT 9999 -SHRA FEW020 SCT030 BKN050 10/05 Q1021

RJFF / Fukuoka
VMC

RJFF_APP

TOWER

16/34 2800x60

民間 civil

9999

290@5KT

30.15

RJFF 250500Z 29005KT 240V320 9999 -RA FEW020 SCT030 BKN050 09/05 Q1021 RMK 1CU020 3CU030 6SC050 A3016

RJFS / Saga
VMC

RJFF_APP

RADIO

29/11 2000x45

民間 civil

9999

040@8KT

30.12

RJFS 250500Z 04008KT 9999 -SHRA FEW020 BKN040 10/07 Q1020

RJFA / Ashiya

RJFF_APP

TOWER

12/30 1640x46

自衛隊 military

過去5時間に発表されたMETARがありません。

RJDB / Iki

RJFF_APP

REMOTE

20/02 1200x30

民間 civil

過去5時間に発表されたMETARがありません。

RJFO / Oita
VMC

RJFO_APP

TOWER

01/19 3000x45

民間 civil

7000

030@6KT

30.15

RJFO 250500Z 03006KT 7000 -RA FEW020 SCT025 BKN040 09/06 Q1021

RJFU / Nagasaki
VMC

RJFU_APP

TOWER

32/14 3000x60

民間 civil

9000

000@1KT

30.12

RJFU 250500Z VRB01KT 9000 -RA FEW010 BKN040 BKN050 09/07 Q1020

RJDU / Omura

RJFU_APP

TOWER

18/36 1200x30

自衛隊 military

過去5時間に発表されたMETARがありません。

RJFE / Fukue
VMC

NO RADAR

RADIO

03/21 2000x45

民間 civil

9999

010@11KT

30.21

RJFE 250137Z 01011KT 9999 -SHRA FEW009 SCT015 BKN025 08/06 Q1023 RMK 1ST009 3CU015 5CU025 A3022

RJDO / Ojika

NO RADAR

REMOTE

03/21 800x30

民間 civil

過去5時間に発表されたMETARがありません。

RJDK / Kamigoto

NO RADAR

REMOTE

17/35 800x30

民間 civil

過去5時間に発表されたMETARがありません。

RJDA / Amakusa

NO RADAR

Flight Service

31/13 1000x30

民間 civil

過去5時間に発表されたMETARがありません。

RJFT / Kumamoto
VMC

RJFT_APP

TOWER

07/25 3000x45

民間 civil

5000

200@4KT

30.09

RJFT 250500Z 20004KT 5000 -RA BR FEW025 BKN045 09/08 Q1019

RJFN / Nyutabaru

RJFM_APP

TOWER

28/10 2701x46

自衛隊 military

過去5時間に発表されたMETARがありません。

RJFM / Miyazaki
VMC

RJFM_APP

TOWER

27/09 2500x45

民間 civil

7000

320@5KT

30.09

RJFM 250500Z 32005KT 280V360 7000 -SHRA FEW005 SCT025 BKN035 10/09 Q1019

RJFK / Kagoshima
VMC

RJFK_APP

TOWER

34/16 3000x45

民間 civil

9999

000@2KT

30.06

RJFK 250500Z VRB02KT 9999 -RA BCFG FEW005 SCT040 BKN050 09/08 Q1018 RMK 1ST005 4SC040 6SC050 A3008 FG NE

RJFY / Kanoya

RJFY_APP

TOWER

26L/08R 2250x45
26R/08L 1200x40

自衛隊 military

過去5時間に発表されたMETARがありません。

RJFG / Tanegashima
VMC

NO RADAR

RADIO

31/13 2000x45

民間 civil

7000

080@9G19KT

30.00

RJFG 250500Z 08009G19KT 040V130 7000 -SHRA FEW008 BKN010 BKN015 11/10 Q1016

RJFC / Yakushima

NO RADAR

REMOTE

14/32 1500x45

民間 civil

過去5時間に発表されたMETARがありません。

RORG Naha Control

ROAH / Naha
VMC

ROAH_APP

TOWER

36/18 3000x45

共用 dual

9999

290@6KT

29.94

ROAH 250500Z 29006KT 260V350 9999 VCSH FEW010 FEW020CB SCT040 BKN/// 21/20 Q1014

RORA / Aguni

ROAH_APP

REMOTE

01/19 800x25

民間 civil

過去5時間に発表されたMETARがありません。

ROKJ / Kumejima

ROAH_APP

REMOTE

03/21 2000x45

民間 civil

過去5時間に発表されたMETARがありません。

RODN / Kadena
VMC

ROAH_APP

TOWER

05L/23R 3688x91
05R/23L 3688x61

自衛隊 military

9999

270@6KT

29.97

RODN 250506Z AUTO 27006KT 10SM FEW004 SCT013 SCT021 SCT065 BKN180 21/19 A2997 RMK AO2 SLP155

ROTM / Futenma

ROAH_APP

TOWER

06/24 2740x45

自衛隊 military

過去5時間に発表されたMETARがありません。

RORS / Shimojishima
VMC

RORS_APP

TOWER

17/35 3000x60

民間 civil

9999

350@15KT

29.97

RORS 250500Z 35015KT 9999 VCSH FEW010 SCT030 BKN038 22/20 Q1015

ROMY / Miyako
VMC

RORS_APP

TOWER

04/22 2000x45

民間 civil

9999

350@11KT

29.97

ROMY 250500Z 35011KT 9999 -SHRA FEW009 BKN013 BKN035 23/20 Q1015

ROIG / New Ishigaki
VMC

RORS_APP

TOWER

22/04 2000x45

民間 civil

9999

340@7KT

29.97

ROIG 250500Z 34007KT 9999 SCT011 BKN018 BKN042 22/19 Q1015

RORT / Tarama

RORS_APP

REMOTE

36/18 1500x45

民間 civil

過去5時間に発表されたMETARがありません。

RJKA / Amami
IMC

NO RADAR

RADIO

03/21 2000x45

民間 civil

4000

070@18KT

29.88

RJKA 250509Z 07018KT 4000 -SHRA BR FEW004 SCT010 BKN015 18/17 Q1012 RMK 1ST004 4CU010 7CU015 A2991

RJKI / Kikai

NO RADAR

REMOTE

07/25 1200x30

民間 civil

過去5時間に発表されたMETARがありません。

RJKN / Tokunoshima

NO RADAR

REMOTE

19/01 2000x45

民間 civil

過去5時間に発表されたMETARがありません。

RJKB / Okierabu

NO RADAR

REMOTE

04/22 1350x45

民間 civil

過去5時間に発表されたMETARがありません。

RORY / Yoron
VMC

NO RADAR

REMOTE

32/14 1320x30

民間 civil

9999

270@9KT

29.94

RORY 250500Z AUTO 27009KT 9999 -RA SCT011 BKN013 BKN022 20/19 Q1014

RORK / Kitadaito

NO RADAR

REMOTE

03/21 1500x45

民間 civil

過去5時間に発表されたMETARがありません。

ROMD / Minami-daito

NO RADAR

REMOTE

02/20 1500x45

民間 civil

過去5時間に発表されたMETARがありません。

ROYN / Yonaguni
IMC

NO RADAR

REMOTE

26/08 2000x45

民間 civil

2700

350@19KT

30.00

ROYN 250515Z AUTO 35019KT 2700 -RA BR OVC013 20/18 Q1016 RMK A3003

RORH / Hateruma

NO RADAR

REMOTE

02/20 800x25

民間 civil

過去5時間に発表されたMETARがありません。

ROKR / Kerama

NO RADAR

REMOTE

02/20 800x25

民間 civil

過去5時間に発表されたMETARがありません。